Time;durP1;ratioP1;P1;durP2;ratioP2;P2;SDS_P1;SDS_P2;PMS_P1;PMS_P2;Temp;Humidity;BMP_temperature;BMP_pressure;BME280_temperature;BME280_humidity;BME280_pressure;Samples;Min_cycle;Max_cycle;Signal;HPM_P1;HPM_P2
2022/03/24 00:01:57;;;;;;;15.83;10.97;;;5.90;99.90;;;;;;5097933;28;20800;-81
2022/03/24 00:04:41;;;;;;;15.27;10.50;;;5.90;99.90;;;;;;5098327;28;20444;-82
2022/03/24 00:07:26;;;;;;;11.40;10.17;;;6.00;99.90;;;;;;5098158;28;20923;-81
2022/03/24 00:10:11;;;;;;;15.93;10.80;;;6.00;99.90;;;;;;5067387;28;20506;-81
2022/03/24 00:12:55;;;;;;;12.87;9.40;;;5.90;99.90;;;;;;5098176;28;20387;-81
2022/03/24 00:15:40;;;;;;;17.60;11.13;;;6.00;99.90;;;;;;5097218;28;20508;-80
2022/03/24 00:18:25;;;;;;;17.97;11.50;;;6.30;99.90;;;;;;5097841;28;20999;-80
2022/03/24 00:21:09;;;;;;;22.57;13.30;;;6.60;99.90;;;;;;5098193;28;20415;-80
2022/03/24 00:23:54;;;;;;;18.97;11.73;;;7.00;99.90;;;;;;5098267;28;20416;-80
2022/03/24 00:26:38;;;;;;;21.03;11.90;;;7.40;99.90;;;;;;5098500;28;20879;-80
2022/03/24 00:29:23;;;;;;;26.87;14.00;;;7.60;99.90;;;;;;5097959;28;20431;-79
2022/03/24 00:32:08;;;;;;;19.17;12.90;;;7.60;99.90;;;;;;5097304;28;20379;-81
2022/03/24 00:34:53;;;;;;;20.17;12.10;;;7.50;99.90;;;;;;5097321;28;20400;-80
2022/03/24 00:37:37;;;;;;;14.27;10.50;;;6.50;99.90;;;;;;5097618;28;20541;-81
2022/03/24 00:40:22;;;;;;;16.00;11.53;;;6.20;99.90;;;;;;5082208;28;20828;-80
2022/03/24 00:43:08;;;;;;;13.67;12.10;;;6.20;99.90;;;;;;5097917;28;20438;-81
2022/03/24 00:45:52;;;;;;;15.90;12.07;;;5.90;99.90;;;;;;5097379;28;20919;-81
2022/03/24 00:48:37;;;;;;;18.77;11.00;;;5.90;99.90;;;;;;5098288;28;20418;-80
2022/03/24 00:51:21;;;;;;;22.87;13.17;;;6.00;99.90;;;;;;5100412;28;20408;-80
2022/03/24 00:54:07;;;;;;;16.90;11.90;;;6.10;99.90;;;;;;5096974;28;20392;-81
2022/03/24 00:56:52;;;;;;;16.27;12.27;;;6.30;99.90;;;;;;5096663;28;20557;-79
2022/03/24 00:59:36;;;;;;;22.87;13.60;;;6.60;99.90;;;;;;5081639;28;20763;-81
2022/03/24 01:02:21;;;;;;;20.57;12.90;;;7.00;99.90;;;;;;5096146;28;20400;-81
2022/03/24 01:05:07;;;;;;;23.70;13.80;;;7.10;99.90;;;;;;5096260;28;20885;-81
2022/03/24 01:07:51;;;;;;;14.33;11.80;;;7.10;99.90;;;;;;5096159;28;20908;-83
2022/03/24 01:10:36;;;;;;;18.13;12.00;;;7.30;99.90;;;;;;5096427;28;20392;-81
2022/03/24 01:13:21;;;;;;;15.10;11.13;;;7.00;99.90;;;;;;5102191;28;20427;-81
2022/03/24 01:16:09;;;;;;;15.27;10.80;;;6.40;99.90;;;;;;5115898;28;20462;-79
2022/03/24 01:18:54;;;;;;;13.43;11.30;;;6.20;99.90;;;;;;5100991;28;20413;-81
2022/03/24 01:21:39;;;;;;;14.03;9.43;;;5.80;99.90;;;;;;5114949;28;20455;-81
2022/03/24 01:24:23;;;;;;;20.73;10.93;;;5.50;99.90;;;;;;5103724;28;20388;-81
2022/03/24 01:27:10;;;;;;;17.00;10.93;;;5.00;99.90;;;;;;5082041;28;20428;-81
2022/03/24 01:29:55;;;;;;;23.20;10.17;;;4.50;99.90;;;;;;5081244;28;20395;-81
2022/03/24 01:32:39;;;;;;;16.90;8.10;;;4.50;99.90;;;;;;5097626;28;20380;-81
2022/03/24 01:35:24;;;;;;;9.70;7.87;;;4.20;99.90;;;;;;5096295;28;20484;-82
2022/03/24 01:38:09;;;;;;;6.83;6.20;;;4.10;99.90;;;;;;5096175;28;20388;-81
2022/03/24 01:40:54;;;;;;;11.33;7.27;;;4.10;99.90;;;;;;5095422;28;20407;-82
2022/03/24 01:43:40;;;;;;;10.90;6.93;;;4.30;99.90;;;;;;5095129;28;20502;-82
2022/03/24 01:46:25;;;;;;;22.93;8.60;;;4.00;99.90;;;;;;5096130;28;20404;-82
2022/03/24 01:49:10;;;;;;;15.90;6.73;;;4.00;99.90;;;;;;5096137;28;20786;-82
2022/03/24 01:51:55;;;;;;;6.10;5.67;;;3.90;99.90;;;;;;5095900;28;20904;-82
2022/03/24 01:54:43;;;;;;;12.23;6.33;;;3.80;99.90;;;;;;5096621;28;20442;-82
2022/03/24 01:57:29;;;;;;;5.90;4.33;;;3.80;99.90;;;;;;5096641;28;20451;-82
2022/03/24 02:00:14;;;;;;;12.07;7.70;;;3.50;99.90;;;;;;5117321;28;20411;-82
2022/03/24 02:03:03;;;;;;;12.53;6.47;;;3.60;99.90;;;;;;5103346;28;20410;-81
2022/03/24 02:05:48;;;;;;;9.17;6.23;;;3.40;99.90;;;;;;5095564;28;20958;-81
2022/03/24 02:08:34;;;;;;;11.23;6.00;;;3.40;99.90;;;;;;5095609;28;20399;-81
2022/03/24 02:11:20;;;;;;;8.13;7.30;;;3.30;99.90;;;;;;5095342;28;20392;-81
2022/03/24 02:14:06;;;;;;;6.73;5.93;;;3.30;99.90;;;;;;5095340;28;20399;-81
2022/03/24 02:16:50;;;;;;;9.13;5.80;;;3.50;99.90;;;;;;5095318;28;20471;-81
2022/03/24 02:19:36;;;;;;;12.13;8.70;;;3.40;99.90;;;;;;5081063;28;21013;-81
2022/03/24 02:22:21;;;;;;;8.83;7.17;;;3.10;99.90;;;;;;5096141;28;21218;-79
2022/03/24 02:25:09;;;;;;;8.50;7.00;;;3.10;99.90;;;;;;5095735;28;20430;-80
2022/03/24 02:27:55;;;;;;;9.17;8.07;;;3.10;99.90;;;;;;5095872;28;20384;-81
2022/03/24 02:30:39;;;;;;;16.23;8.67;;;3.30;99.90;;;;;;5096077;28;20396;-82
2022/03/24 02:33:24;;;;;;;11.80;8.97;;;3.70;99.90;;;;;;5080031;28;20943;-81
2022/03/24 02:36:09;;;;;;;14.80;7.90;;;3.80;99.90;;;;;;5095469;28;20452;-82
2022/03/24 02:38:53;;;;;;;8.40;6.20;;;3.70;99.90;;;;;;5080167;28;20443;-81
2022/03/24 02:41:55;;;;;;;17.73;6.80;;;3.70;99.90;;;;;;5079720;28;20392;-81
2022/03/24 02:44:43;;;;;;;12.47;7.97;;;3.40;99.90;;;;;;5081000;28;20794;-80
2022/03/24 02:47:27;;;;;;;4.97;4.40;;;3.30;99.90;;;;;;5096114;28;20934;-81
2022/03/24 02:50:12;;;;;;;10.20;6.90;;;2.80;99.90;;;;;;5099259;28;20458;-80
2022/03/24 02:52:58;;;;;;;12.23;6.43;;;2.90;99.90;;;;;;5098312;28;20424;-81
2022/03/24 02:55:43;;;;;;;10.67;8.00;;;2.90;99.90;;;;;;5103079;28;20991;-80
2022/03/24 02:58:27;;;;;;;14.57;8.97;;;3.00;99.90;;;;;;5101910;28;20449;-81
2022/03/24 03:01:12;;;;;;;13.37;8.43;;;3.20;99.90;;;;;;5100776;28;20450;-82
2022/03/24 03:03:57;;;;;;;8.50;6.83;;;3.20;99.90;;;;;;5098850;28;20414;-82
2022/03/24 03:06:42;;;;;;;11.87;7.80;;;3.20;99.90;;;;;;5082968;28;20452;-80
2022/03/24 03:09:26;;;;;;;13.57;8.83;;;3.30;99.90;;;;;;5099312;28;20396;-82
2022/03/24 03:12:12;;;;;;;17.67;9.00;;;3.40;99.90;;;;;;5099152;28;20437;-81
2022/03/24 03:14:57;;;;;;;8.37;7.50;;;3.70;99.90;;;;;;5099178;28;20419;-82
2022/03/24 03:17:41;;;;;;;9.33;8.53;;;3.90;99.90;;;;;;5069134;28;20443;-81
2022/03/24 03:20:26;;;;;;;9.37;7.70;;;4.00;99.90;;;;;;5099087;28;20500;-81
2022/03/24 03:23:11;;;;;;;12.50;8.00;;;3.60;99.90;;;;;;5083577;28;20384;-82
2022/03/24 03:25:56;;;;;;;8.50;7.70;;;3.40;99.90;;;;;;5098308;28;20400;-82
2022/03/24 03:28:40;;;;;;;11.27;8.10;;;3.60;99.90;;;;;;5099341;28;20395;-81
2022/03/24 03:31:25;;;;;;;23.93;7.63;;;3.40;99.90;;;;;;5098231;28;20448;-82
2022/03/24 03:34:11;;;;;;;13.17;8.10;;;3.30;99.90;;;;;;5098979;28;20453;-82
2022/03/24 03:36:56;;;;;;;10.87;7.77;;;3.30;99.90;;;;;;5098994;28;20971;-81
2022/03/24 03:39:41;;;;;;;13.87;8.20;;;3.30;99.90;;;;;;5099488;28;20457;-82
2022/03/24 03:42:27;;;;;;;13.60;8.17;;;3.30;99.90;;;;;;5099700;28;20388;-81
2022/03/24 03:45:12;;;;;;;12.00;8.27;;;3.20;99.90;;;;;;5104441;28;20422;-81
2022/03/24 03:47:57;;;;;;;16.13;10.43;;;3.20;99.90;;;;;;5098629;28;20397;-81
2022/03/24 03:50:41;;;;;;;16.90;7.40;;;3.30;99.90;;;;;;5098388;28;20442;-81
2022/03/24 03:53:26;;;;;;;13.20;10.20;;;3.40;99.90;;;;;;5098586;28;20446;-81
2022/03/24 03:56:12;;;;;;;20.67;9.93;;;3.40;99.90;;;;;;5098246;28;20463;-80
2022/03/24 03:58:56;;;;;;;14.57;8.83;;;3.30;99.90;;;;;;5098306;28;20497;-81
2022/03/24 04:01:41;;;;;;;10.13;7.23;;;3.20;99.90;;;;;;5098764;28;20380;-82
2022/03/24 04:04:25;;;;;;;8.90;6.80;;;3.10;99.90;;;;;;5098426;28;20389;-81
2022/03/24 04:07:10;;;;;;;11.23;7.37;;;3.00;99.90;;;;;;5096964;28;21134;-81
2022/03/24 04:09:54;;;;;;;12.93;7.13;;;2.90;99.90;;;;;;5097937;28;20954;-81
2022/03/24 04:12:39;;;;;;;14.50;7.33;;;2.80;99.90;;;;;;5098182;28;20987;-82
2022/03/24 04:15:24;;;;;;;13.80;8.97;;;2.80;99.90;;;;;;5098079;28;20413;-80
2022/03/24 04:18:09;;;;;;;17.93;7.00;;;2.70;99.90;;;;;;5083106;28;20392;-81
2022/03/24 04:20:54;;;;;;;13.50;8.90;;;2.40;99.90;;;;;;5098232;28;20383;-82
2022/03/24 04:23:40;;;;;;;16.70;10.03;;;2.60;99.90;;;;;;5098966;28;20438;-81
2022/03/24 04:26:25;;;;;;;14.47;8.40;;;2.60;99.90;;;;;;5098048;28;20441;-81
2022/03/24 04:29:09;;;;;;;12.93;7.80;;;2.40;99.90;;;;;;5098002;28;20422;-80
2022/03/24 04:31:55;;;;;;;13.53;6.90;;;2.50;99.90;;;;;;5068265;28;20551;-81
2022/03/24 04:34:40;;;;;;;27.27;8.80;;;2.90;99.90;;;;;;5097313;28;20954;-81
2022/03/24 04:37:25;;;;;;;11.97;9.70;;;3.30;99.90;;;;;;5082538;28;20489;-81
2022/03/24 04:40:11;;;;;;;16.80;10.73;;;3.40;99.90;;;;;;5068443;28;20500;-81
2022/03/24 04:42:56;;;;;;;13.90;9.07;;;3.70;99.90;;;;;;5097477;28;20435;-82
2022/03/24 04:45:40;;;;;;;12.80;9.57;;;3.60;99.90;;;;;;5081542;28;20420;-81
2022/03/24 04:48:25;;;;;;;7.93;7.13;;;3.40;99.90;;;;;;5094060;28;20403;-81
2022/03/24 04:51:10;;;;;;;20.17;9.17;;;3.10;99.90;;;;;;5098018;28;20858;-81
2022/03/24 04:53:54;;;;;;;9.90;8.00;;;2.90;99.90;;;;;;5097426;28;20388;-79
2022/03/24 04:56:39;;;;;;;8.37;7.53;;;2.60;99.90;;;;;;5097715;28;20926;-81
2022/03/24 04:59:23;;;;;;;21.53;10.37;;;2.60;99.90;;;;;;5098057;28;20399;-81
2022/03/24 05:02:12;;;;;;;7.17;5.97;;;2.60;99.90;;;;;;5097858;28;20388;-80
2022/03/24 05:04:56;;;;;;;8.33;5.97;;;2.50;99.90;;;;;;5100013;28;20481;-82
2022/03/24 05:07:42;;;;;;;16.17;8.67;;;2.30;99.90;;;;;;5117539;28;20411;-82
2022/03/24 05:10:27;;;;;;;8.23;6.77;;;2.30;99.90;;;;;;5102325;28;20400;-81
2022/03/24 05:13:12;;;;;;;12.70;8.40;;;2.00;99.90;;;;;;5098240;28;20447;-82
2022/03/24 05:15:56;;;;;;;9.73;8.73;;;2.30;99.90;;;;;;5096608;28;20444;-82
2022/03/24 05:18:40;;;;;;;10.53;7.37;;;2.20;99.90;;;;;;5096789;28;20437;-81
2022/03/24 05:21:25;;;;;;;23.73;8.50;;;2.30;99.90;;;;;;5082508;28;20396;-81
2022/03/24 05:24:10;;;;;;;16.47;8.67;;;2.30;99.90;;;;;;5097693;28;20397;-80
2022/03/24 05:26:54;;;;;;;7.87;5.73;;;2.30;99.90;;;;;;5096764;28;20396;-81
2022/03/24 05:29:39;;;;;;;10.57;6.70;;;2.20;99.90;;;;;;5096302;28;20438;-81
2022/03/24 05:32:24;;;;;;;9.50;8.50;;;2.30;99.90;;;;;;5096605;28;20424;-82
2022/03/24 05:35:10;;;;;;;10.90;6.90;;;2.40;99.90;;;;;;5080571;28;20387;-80
2022/03/24 05:37:54;;;;;;;16.20;5.63;;;2.10;99.90;;;;;;5095886;28;20916;-82
2022/03/24 05:40:39;;;;;;;13.77;8.80;;;2.10;99.90;;;;;;5080993;28;20384;-81
2022/03/24 05:43:24;;;;;;;11.77;7.87;;;2.10;99.90;;;;;;5081456;28;20388;-82
2022/03/24 05:46:08;;;;;;;9.40;6.43;;;1.90;99.90;;;;;;5096438;28;20991;-81
2022/03/24 05:48:53;;;;;;;11.50;7.90;;;1.90;99.90;;;;;;5096613;28;20887;-82
2022/03/24 05:51:37;;;;;;;8.67;7.00;;;1.80;99.90;;;;;;5096947;28;20373;-82
2022/03/24 05:54:22;;;;;;;18.07;9.63;;;1.80;99.90;;;;;;5081554;28;20388;-82
2022/03/24 05:57:08;;;;;;;10.63;7.90;;;1.90;99.90;;;;;;5096071;28;21096;-82
2022/03/24 05:59:52;;;;;;;14.30;8.43;;;2.20;99.90;;;;;;5081094;28;20404;-81
2022/03/24 06:02:37;;;;;;;15.27;11.30;;;2.50;99.90;;;;;;5096862;28;20403;-83
2022/03/24 06:05:25;;;;;;;12.30;8.90;;;2.70;99.90;;;;;;5095975;28;20566;-81
2022/03/24 06:08:11;;;;;;;9.90;7.33;;;2.70;99.90;;;;;;5081810;28;20484;-82
2022/03/24 06:10:55;;;;;;;13.47;9.07;;;2.80;99.90;;;;;;5095871;28;20896;-82
2022/03/24 06:13:41;;;;;;;14.83;9.57;;;2.70;99.90;;;;;;5096250;28;20840;-82
2022/03/24 06:16:27;;;;;;;13.40;8.90;;;2.80;99.90;;;;;;5095561;28;20443;-79
2022/03/24 06:19:11;;;;;;;19.10;10.00;;;2.90;99.90;;;;;;5081989;28;20870;-82
2022/03/24 06:21:56;;;;;;;15.13;10.60;;;3.20;99.90;;;;;;5097116;28;20431;-81
2022/03/24 06:24:40;;;;;;;14.03;10.80;;;3.60;99.90;;;;;;5095923;28;20404;-82
2022/03/24 06:27:25;;;;;;;13.93;7.93;;;4.20;99.90;;;;;;5091546;28;20432;-81
2022/03/24 06:30:10;;;;;;;18.63;10.80;;;4.60;99.90;;;;;;5080808;28;20392;-82
2022/03/24 06:32:56;;;;;;;23.43;13.93;;;5.00;99.90;;;;;;5092068;28;20436;-80
2022/03/24 06:35:44;;;;;;;19.67;13.53;;;5.10;99.90;;;;;;5082416;28;20916;-82
2022/03/24 06:38:29;;;;;;;17.67;13.37;;;5.30;99.90;;;;;;5085680;28;20516;-82
2022/03/24 06:41:14;;;;;;;14.73;12.27;;;5.40;99.90;;;;;;5089960;28;20412;-80
2022/03/24 06:43:59;;;;;;;23.03;11.90;;;5.40;99.90;;;;;;5081236;28;20435;-82
2022/03/24 06:46:44;;;;;;;15.13;10.10;;;5.40;99.90;;;;;;5072991;28;20415;-82
2022/03/24 06:49:29;;;;;;;19.40;12.57;;;5.50;99.90;;;;;;5092576;28;20442;-82
2022/03/24 06:52:13;;;;;;;22.23;12.13;;;5.70;99.90;;;;;;5092030;28;20399;-83
2022/03/24 06:54:57;;;;;;;22.87;13.17;;;5.60;99.90;;;;;;5096660;28;20478;-82
2022/03/24 06:57:42;;;;;;;21.93;15.13;;;5.70;99.90;;;;;;5084217;28;20463;-83
2022/03/24 07:00:27;;;;;;;21.73;11.30;;;5.70;99.90;;;;;;5094362;28;20415;-82
2022/03/24 07:03:11;;;;;;;16.47;11.20;;;5.70;99.90;;;;;;5085190;28;20853;-80
2022/03/24 07:05:56;;;;;;;25.80;17.10;;;5.80;99.90;;;;;;5090961;28;20432;-82
2022/03/24 07:08:40;;;;;;;25.87;15.30;;;5.80;99.90;;;;;;5081577;28;20239;-82
2022/03/24 07:11:25;;;;;;;18.37;13.83;;;5.70;99.90;;;;;;5084982;28;20503;-81
2022/03/24 07:14:11;;;;;;;24.97;14.43;;;5.40;99.90;;;;;;5128781;28;20399;-80
2022/03/24 07:16:55;;;;;;;19.30;13.27;;;5.20;99.90;;;;;;5075259;28;20716;-81
2022/03/24 07:19:40;;;;;;;23.03;13.13;;;5.10;99.90;;;;;;5067999;28;20482;-82
2022/03/24 07:22:24;;;;;;;20.73;12.30;;;5.10;99.90;;;;;;5041621;28;20421;-82
2022/03/24 07:25:10;;;;;;;16.87;11.83;;;5.30;99.90;;;;;;5041051;28;20452;-82
2022/03/24 07:27:54;;;;;;;18.27;11.77;;;5.60;99.90;;;;;;5042304;28;20432;-81
2022/03/24 07:30:39;;;;;;;24.80;14.07;;;5.80;99.90;;;;;;5052985;28;20978;-83
2022/03/24 07:33:23;;;;;;;25.67;13.93;;;6.30;99.90;;;;;;5060410;28;20507;-82
2022/03/24 07:36:08;;;;;;;23.17;13.67;;;6.50;99.90;;;;;;5049611;28;20589;-82
2022/03/24 07:38:55;;;;;;;25.47;14.27;;;6.80;99.90;;;;;;5063388;28;20616;-82
2022/03/24 07:41:40;;;;;;;27.07;14.27;;;7.00;99.90;;;;;;5063065;28;20432;-82
2022/03/24 07:44:25;;;;;;;24.40;15.77;;;7.20;99.90;;;;;;5068493;28;20494;-82
2022/03/24 07:47:10;;;;;;;20.30;13.13;;;7.30;99.90;;;;;;5061306;28;20786;-79
2022/03/24 07:49:54;;;;;;;22.87;14.90;;;7.40;99.90;;;;;;5073764;28;20499;-82
2022/03/24 07:52:40;;;;;;;29.90;16.17;;;7.50;99.90;;;;;;5063028;28;20421;-82
2022/03/24 07:55:29;;;;;;;21.83;13.07;;;7.70;99.90;;;;;;5061628;28;20433;-82
2022/03/24 07:58:16;;;;;;;25.30;13.97;;;7.80;99.90;;;;;;5046049;28;20870;-81
2022/03/24 08:01:01;;;;;;;17.53;15.10;;;7.80;99.90;;;;;;5060449;28;20529;-81
2022/03/24 08:03:45;;;;;;;20.67;11.83;;;7.90;99.90;;;;;;5064137;28;20401;-80
2022/03/24 08:06:30;;;;;;;26.20;14.67;;;7.70;99.90;;;;;;5070533;28;20503;-82
2022/03/24 08:09:15;;;;;;;24.10;13.97;;;7.60;99.90;;;;;;5105234;28;20746;-82
2022/03/24 08:12:00;;;;;;;30.20;16.27;;;7.80;99.90;;;;;;5099218;28;20766;-81
2022/03/24 08:14:44;;;;;;;21.50;15.60;;;8.00;99.90;;;;;;5098145;28;20450;-81
2022/03/24 08:17:29;;;;;;;30.70;18.77;;;8.10;99.90;;;;;;5091800;28;20443;-81
2022/03/24 08:20:14;;;;;;;21.20;16.17;;;8.10;99.90;;;;;;5083188;28;20416;-82
2022/03/24 08:22:58;;;;;;;25.40;16.67;;;8.00;99.90;;;;;;5095979;28;20607;-81
2022/03/24 08:25:44;;;;;;;29.47;16.20;;;8.00;99.90;;;;;;5100175;28;20755;-81
2022/03/24 08:28:31;;;;;;;22.20;15.37;;;7.70;99.90;;;;;;5094653;28;20424;-82
2022/03/24 08:31:15;;;;;;;26.77;15.80;;;7.90;99.90;;;;;;5100568;28;20892;-82
2022/03/24 08:34:00;;;;;;;29.17;17.23;;;8.40;99.90;;;;;;5106150;28;20919;-82
2022/03/24 08:36:45;;;;;;;22.67;15.97;;;8.90;99.90;;;;;;5085536;28;20435;-81
2022/03/24 08:39:29;;;;;;;25.27;17.60;;;9.20;99.90;;;;;;5095852;28;20438;-82
2022/03/24 08:42:37;;;;;;;26.67;20.77;;;9.50;99.90;;;;;;5038151;28;20412;-82
2022/03/24 08:45:22;;;;;;;25.10;17.77;;;9.40;99.90;;;;;;5050093;28;20265;-82
2022/03/24 08:48:07;;;;;;;24.50;18.03;;;9.50;99.90;;;;;;5056601;28;20494;-80
2022/03/24 08:50:52;;;;;;;34.63;20.00;;;9.80;99.90;;;;;;5044391;28;20504;-82
2022/03/24 08:53:36;;;;;;;21.37;16.80;;;10.20;99.90;;;;;;5055348;28;20414;-81
2022/03/24 08:56:21;;;;;;;23.60;16.77;;;10.50;99.90;;;;;;5065877;28;20464;-81
2022/03/24 08:59:06;;;;;;;27.20;18.73;;;10.90;99.90;;;;;;5061467;28;20395;-81
2022/03/24 09:01:50;;;;;;;23.47;18.90;;;11.20;99.90;;;;;;5056296;28;20414;-80
2022/03/24 09:04:35;;;;;;;28.90;18.87;;;11.50;99.90;;;;;;5042912;28;20489;-82
2022/03/24 09:07:19;;;;;;;27.87;19.23;;;11.30;99.90;;;;;;5032204;28;20462;-82
2022/03/24 09:10:06;;;;;;;23.20;16.47;;;11.20;99.90;;;;;;5036131;28;20408;-81
2022/03/24 09:12:51;;;;;;;27.00;18.97;;;11.70;99.90;;;;;;5034855;28;20870;-80
2022/03/24 09:15:35;;;;;;;31.00;19.50;;;10.80;99.90;;;;;;5036755;28;20462;-80
2022/03/24 09:18:20;;;;;;;28.57;19.00;;;11.60;99.90;;;;;;5037382;28;20509;-81
2022/03/24 09:21:05;;;;;;;27.63;16.27;;;12.20;99.90;;;;;;5105642;28;20492;-80
2022/03/24 09:23:50;;;;;;;32.60;19.97;;;12.60;99.90;;;;;;5101557;28;20439;-81
2022/03/24 09:26:37;;;;;;;26.23;17.47;;;13.10;99.90;;;;;;5099692;28;20415;-81
2022/03/24 09:29:22;;;;;;;28.60;17.93;;;13.40;99.90;;;;;;5116485;28;20395;-81
2022/03/24 09:32:12;;;;;;;29.17;19.33;;;13.70;99.90;;;;;;5098769;28;20421;-81
2022/03/24 09:34:57;;;;;;;24.33;18.10;;;13.90;99.90;;;;;;5083214;28;20407;-81
2022/03/24 09:37:42;;;;;;;29.60;18.77;;;13.60;99.90;;;;;;5102318;28;20502;-80
2022/03/24 09:40:26;;;;;;;30.57;19.40;;;14.30;99.90;;;;;;5099446;28;20392;-81
2022/03/24 09:43:13;;;;;;;31.50;19.93;;;14.90;99.90;;;;;;5106715;28;20462;-82
2022/03/24 09:45:58;;;;;;;27.43;20.40;;;14.90;99.90;;;;;;5106155;28;20473;-81
2022/03/24 09:48:43;;;;;;;29.53;20.27;;;14.70;94.60;;;;;;5077321;28;20493;-82
2022/03/24 09:51:29;;;;;;;32.13;19.60;;;14.80;92.70;;;;;;5102078;28;20415;-80
2022/03/24 09:54:13;;;;;;;34.63;22.73;;;15.70;94.00;;;;;;5098761;28;20423;-81
2022/03/24 09:57:07;;;;;;;32.33;21.20;;;16.40;90.80;;;;;;5082753;28;20462;-81
2022/03/24 09:59:52;;;;;;;31.93;21.47;;;16.70;87.30;;;;;;5101850;28;20408;-82
2022/03/24 10:02:37;;;;;;;40.47;23.73;;;17.20;91.90;;;;;;5096271;28;20391;-81
2022/03/24 10:05:21;;;;;;;28.83;19.57;;;17.10;87.00;;;;;;5084170;28;20568;-81
2022/03/24 10:08:06;;;;;;;38.20;21.97;;;17.40;81.40;;;;;;5095715;28;20416;-82
2022/03/24 10:10:58;;;;;;;31.30;22.20;;;17.40;80.20;;;;;;5095452;28;20458;-81
2022/03/24 10:13:45;;;;;;;33.47;23.33;;;18.20;79.50;;;;;;5084783;28;20407;-81
2022/03/24 10:16:41;;;;;;;35.47;23.63;;;18.80;73.50;;;;;;5095088;28;20444;-81
2022/03/24 10:19:27;;;;;;;32.60;23.50;;;19.40;64.70;;;;;;5096906;28;20419;-80
2022/03/24 10:22:14;;;;;;;29.63;22.33;;;19.60;62.90;;;;;;5100336;28;20431;-80
2022/03/24 10:24:58;;;;;;;29.97;22.20;;;19.80;60.40;;;;;;5084793;28;20476;-81
2022/03/24 10:27:48;;;;;;;29.97;23.77;;;19.80;64.90;;;;;;5100347;28;20431;-81
2022/03/24 10:30:52;;;;;;;42.17;23.00;;;20.30;58.70;;;;;;5102741;28;20420;-80
2022/03/24 10:33:39;;;;;;;33.67;24.03;;;20.50;56.50;;;;;;5100610;28;20415;-81
2022/03/24 10:36:26;;;;;;;26.80;20.63;;;20.20;55.30;;;;;;5097593;28;20459;-81
2022/03/24 10:39:11;;;;;;;32.73;22.20;;;20.70;55.00;;;;;;5089764;28;20416;-80
2022/03/24 10:42:14;;;;;;;31.80;22.27;;;20.90;56.60;;;;;;5089016;28;20435;-82
2022/03/24 10:45:12;;;;;;;31.20;21.00;;;20.90;53.20;;;;;;5091089;28;20455;-81
2022/03/24 10:48:00;;;;;;;32.53;21.63;;;21.50;54.40;;;;;;5080326;28;20471;-80
2022/03/24 10:50:44;;;;;;;27.93;19.67;;;21.80;51.80;;;;;;5076002;28;20420;-80
2022/03/24 10:53:40;;;;;;;27.10;21.33;;;21.80;50.90;;;;;;5097403;28;20436;-82
2022/03/24 10:56:33;;;;;;;26.00;20.40;;;21.10;50.00;;;;;;5093551;28;20197;-79
2022/03/24 10:59:17;;;;;;;24.33;18.70;;;21.90;49.50;;;;;;5086051;28;20408;-80
2022/03/24 11:02:02;;;;;;;29.40;23.90;;;22.40;47.90;;;;;;5098993;28;20403;-81
2022/03/24 11:04:47;;;;;;;23.20;19.40;;;22.60;48.50;;;;;;5102978;28;20428;-81
2022/03/24 11:07:31;;;;;;;24.83;18.77;;;23.10;47.40;;;;;;5088110;28;20459;-82
2022/03/24 11:10:17;;;;;;;20.40;18.30;;;23.30;47.30;;;;;;5111351;28;20415;-81
2022/03/24 11:13:04;;;;;;;34.90;21.50;;;22.30;44.60;;;;;;5073473;28;20501;-78
2022/03/24 11:15:51;;;;;;;27.03;19.80;;;22.70;45.20;;;;;;5084230;28;20459;-81
2022/03/24 11:18:36;;;;;;;28.40;20.00;;;23.70;44.90;;;;;;5088539;28;20470;-80
2022/03/24 11:21:29;;;;;;;25.53;20.33;;;23.80;44.40;;;;;;5092334;28;20449;-82
2022/03/24 11:24:13;;;;;;;22.20;19.63;;;24.50;43.20;;;;;;5109180;28;20411;-82
2022/03/24 11:26:58;;;;;;;28.60;22.10;;;23.50;41.70;;;;;;5067189;28;20486;-82
2022/03/24 11:29:45;;;;;;;24.50;20.63;;;24.30;43.10;;;;;;5075730;28;20890;-81
2022/03/24 11:32:31;;;;;;;23.10;19.63;;;24.50;42.50;;;;;;5102175;28;20681;-80
2022/03/24 11:35:16;;;;;;;29.03;22.27;;;24.50;43.20;;;;;;5102503;28;20419;-81
2022/03/24 11:38:04;;;;;;;24.10;18.77;;;24.70;40.60;;;;;;5110470;28;20442;-80
2022/03/24 11:40:49;;;;;;;22.23;19.53;;;24.90;40.90;;;;;;5096439;28;20464;-81
2022/03/24 11:43:40;;;;;;;21.17;19.00;;;25.50;40.20;;;;;;5088059;28;20717;-82
2022/03/24 11:46:48;;;;;;;25.50;21.83;;;26.10;39.40;;;;;;5099608;28;20456;-81
2022/03/24 11:49:33;;;;;;;20.73;18.30;;;25.90;38.90;;;;;;5103097;28;20465;-80
2022/03/24 11:52:22;;;;;;;20.80;18.60;;;24.40;41.00;;;;;;5100296;28;20399;-81
2022/03/24 11:55:13;;;;;;;19.87;17.87;;;22.00;39.00;;;;;;5088823;28;20513;-82
2022/03/24 11:58:00;;;;;;;21.17;19.07;;;23.10;40.00;;;;;;5089845;28;20449;-79
2022/03/24 12:00:45;;;;;;;17.17;15.30;;;24.10;40.80;;;;;;5116226;28;20414;-81
2022/03/24 12:03:41;;;;;;;16.23;14.30;;;24.80;38.50;;;;;;5096770;28;20456;-82
2022/03/24 12:06:51;;;;;;;18.93;13.00;;;26.70;36.00;;;;;;5101505;28;20466;-81
2022/03/24 12:09:54;;;;;;;14.20;12.90;;;26.90;32.90;;;;;;5069815;28;20533;-81
2022/03/24 12:12:59;;;;;;;15.83;14.07;;;26.20;32.10;;;;;;5074677;28;20493;-81
2022/03/24 12:15:44;;;;;;;16.60;15.00;;;26.80;34.80;;;;;;5102729;28;20391;-81
2022/03/24 12:18:40;;;;;;;17.40;15.70;;;26.70;31.70;;;;;;5098226;28;20424;-80
2022/03/24 12:21:28;;;;;;;14.17;12.97;;;26.70;33.20;;;;;;5088143;28;20408;-82
2022/03/24 12:24:17;;;;;;;14.07;12.67;;;27.30;33.20;;;;;;5068154;28;20161;-80
2022/03/24 12:27:05;;;;;;;13.93;12.52;;;27.90;34.50;;;;;;5089163;28;20201;-79
2022/03/24 12:30:15;;;;;;;14.75;13.15;;;27.50;29.90;;;;;;5087879;28;20176;-80
2022/03/24 12:33:07;;;;;;;13.07;11.77;;;28.20;30.80;;;;;;5084800;28;20166;-81
2022/03/24 12:35:56;;;;;;;14.23;13.02;;;28.50;30.00;;;;;;5082611;28;20174;-82
2022/03/24 12:38:46;;;;;;;14.75;13.27;;;27.50;30.50;;;;;;5111683;28;20512;-80
2022/03/24 12:41:31;;;;;;;15.38;13.88;;;26.30;30.70;;;;;;5093873;28;20220;-81
2022/03/24 12:44:18;;;;;;;13.40;12.20;;;23.70;30.90;;;;;;5092871;28;20200;-79
2022/03/24 12:47:05;;;;;;;13.33;11.77;;;22.00;32.00;;;;;;5116909;28;20188;-80
2022/03/24 12:49:51;;;;;;;15.10;13.53;;;22.90;33.30;;;;;;5125363;28;20405;-78
2022/03/24 12:53:07;;;;;;;18.83;14.27;;;25.50;35.10;;;;;;5116694;28;20415;-81
2022/03/24 12:55:52;;;;;;;16.93;15.13;;;25.70;35.90;;;;;;5108939;28;20470;-81
2022/03/24 12:58:37;;;;;;;14.13;12.70;;;27.70;32.30;;;;;;5101015;28;20414;-82
2022/03/24 13:01:21;;;;;;;16.23;14.53;;;27.10;31.40;;;;;;5110531;28;20199;-78
2022/03/24 13:04:08;;;;;;;17.47;15.27;;;25.10;31.30;;;;;;5092097;28;20181;-81
2022/03/24 13:06:52;;;;;;;15.73;14.23;;;27.10;31.40;;;;;;5090516;28;20228;-81
2022/03/24 13:09:37;;;;;;;16.07;14.57;;;28.00;31.10;;;;;;5088850;28;20184;-80
2022/03/24 13:12:28;;;;;;;16.27;14.57;;;25.70;29.90;;;;;;5103740;28;20179;-80
2022/03/24 13:15:22;;;;;;;15.57;14.03;;;23.70;32.60;;;;;;5088935;28;20172;-80
2022/03/24 13:18:12;;;;;;;16.03;13.60;;;23.10;33.20;;;;;;5084107;28;20419;-82
2022/03/24 13:20:57;;;;;;;16.87;15.30;;;26.00;32.70;;;;;;5095255;28;20411;-81
2022/03/24 13:24:02;;;;;;;16.60;14.90;;;26.00;33.70;;;;;;5084280;28;20419;-80
2022/03/24 13:27:01;;;;;;;17.20;15.00;;;27.00;31.20;;;;;;5029515;28;20489;-80
2022/03/24 13:29:45;;;;;;;17.80;15.30;;;26.70;30.40;;;;;;5048216;28;20425;-82
2022/03/24 13:32:30;;;;;;;15.73;14.17;;;28.40;30.20;;;;;;5046814;28;20242;-81
2022/03/24 13:35:17;;;;;;;16.95;15.38;;;27.30;32.80;;;;;;5045934;28;20276;-82
2022/03/24 13:38:06;;;;;;;17.08;14.63;;;28.30;30.60;;;;;;5027769;28;20182;-80
2022/03/24 13:40:54;;;;;;;16.40;14.82;;;26.90;32.20;;;;;;5051501;28;20269;-80
2022/03/24 13:43:39;;;;;;;16.77;15.18;;;25.80;31.20;;;;;;5038658;28;20225;-79
2022/03/24 13:46:25;;;;;;;16.60;15.20;;;24.60;31.70;;;;;;5062774;28;20256;-81
2022/03/24 13:49:14;;;;;;;16.33;14.73;;;25.80;32.40;;;;;;5035831;28;20163;-80
2022/03/24 13:51:59;;;;;;;16.98;15.32;;;25.90;31.20;;;;;;5037506;28;20182;-77
2022/03/24 13:54:43;;;;;;;16.30;14.70;;;25.10;31.30;;;;;;5039525;28;20198;-79
2022/03/24 13:57:52;;;;;;;17.67;16.08;;;25.60;32.00;;;;;;5045453;28;20186;-80
2022/03/24 14:00:45;;;;;;;14.85;13.38;;;25.30;31.60;;;;;;5061935;28;20572;-81
2022/03/24 14:03:29;;;;;;;17.17;14.23;;;25.00;31.50;;;;;;5063150;28;20225;-80
2022/03/24 14:06:34;;;;;;;21.45;18.27;;;25.90;32.80;;;;;;5055389;28;20299;-80
2022/03/24 14:09:22;;;;;;;22.67;14.33;;;24.50;31.20;;;;;;5059606;28;20225;-80
2022/03/24 14:12:08;;;;;;;16.37;14.80;;;24.80;33.20;;;;;;5059184;28;20187;-78
2022/03/24 14:14:54;;;;;;;16.70;15.20;;;26.10;33.80;;;;;;5069273;28;20238;-80
2022/03/24 14:17:38;;;;;;;17.05;15.35;;;27.20;31.10;;;;;;5058174;28;20199;-80